KPSF

Pittsfield Municipal Airport

Pittsfield, Massachusetts, USA
KPSF 212328Z 2200/2224 31024G39KT 6SM BLSN SCT030 FM220400 31014G24KT P6SM SKC FM221300 31008KT P6SM SKC FM222100 28004KT P6SM SCT120
Issued Valid From Valid To
Jan-21 @ 23:28 UTC
(41 minutes ago)
Jan-22 @ 00:00 UTC
(9 minutes ago)
Jan-23 @ 00:00 UTC
(in 24 hours)
Jan-22 @ 00:00 to Jan-22 @ 04:00
KPSF 212328Z 2200/2224 31024G39KT 6SM BLSN SCT030
Wind Visibility Clouds Conditions
310° at 24 knots
 Gusting to 39 knots
6 miles
  • Scattered at 3,000' AGL
  • Blowing
  • Snow
From Jan-22 @ 04:00 to Jan-22 @ 13:00
FM220400 31014G24KT P6SM SKC
Wind Visibility Clouds
310° at 14 knots
 Gusting to 24 knots
Greater than 6 miles
  • Clear skies
From Jan-22 @ 13:00 to Jan-22 @ 21:00
FM221300 31008KT P6SM SKC
Wind Visibility Clouds
310° at 8 knots Greater than 6 miles
  • Clear skies
From Jan-22 @ 21:00 to Jan-23 @ 00:00
FM222100 28004KT P6SM SCT120
Wind Visibility Clouds
280° at 4 knots Greater than 6 miles
  • Scattered at 12,000' AGL
KPSF 212328Z 2200/2224 31024G39KT 6SM BLSN SCT030 FM220400 31014G24KT P6SM SKC FM221300 31008KT P6SM SKC FM222100 28004KT P6SM SCT120
Issued Jan-21 @ 23:28 UTC
(41 minutes ago)
Valid From Jan-22 @ 00:00 UTC
(9 minutes ago)
Valid To Jan-23 @ 00:00 UTC
(in 24 hours)
Jan-22 @ 00:00 - Jan-22 @ 04:00
Wind Visibility
310° at 24 knots
 Gusting to 39 knots
6 miles
Clouds
  • Scattered at 3,000' AGL
Conditions
  • Blowing
  • Snow
From Jan-22 @ 04:00 - Jan-22 @ 13:00
Wind Visibility
310° at 14 knots
 Gusting to 24 knots
Greater than 6 miles
Clouds
  • Clear skies
From Jan-22 @ 13:00 - Jan-22 @ 21:00
Wind Visibility
310° at 8 knots Greater than 6 miles
Clouds
  • Clear skies
From Jan-22 @ 21:00 - Jan-23 @ 00:00
Wind Visibility
280° at 4 knots Greater than 6 miles
Clouds
  • Scattered at 12,000' AGL